Rome, Italy

2:22 AM CEST on July 30, 2016 (GMT +0200)
Ciampino | | Change Station

Elev 348 ft 41.81 °N, 12.60 °E | Updated 45 seconds ago

Clear
Clear
74.1 °F
Feels Like 74 °F
N
0.7
Wind Variable Wind from North
Gusts 2.2 mph

Today
High -- | Low -- °F
--% Chance of Precip.
Yesterday
High -- | Low -- °F
Precip. -- in
Pressure 29.98 in
Visibility -9999.0 miles
Clouds
Heat Index 74 °F
Dew Point 69.0 °F
Humidity 84%
Rainfall 0.00 in
Snow Depth Not available.
6:01 AM 8:29 PM
Waning Crescent, 18% visible
METAR LIRE 292355Z 01003KT CAVOK 21/20 Q1015 RMK SKC VIS MIN 9999 WIND THR13 01001KT WIND THR31 02001KT BLU
Pressure 29.98 in
Visibility -9999.0 miles
Clouds
Heat Index 74 °F
Dew Point 69.0 °F
Humidity 84%
Rainfall 0.00 in
Snow Depth Not available.
6:01 AM 8:29 PM
Waning Crescent, 18% visible
METAR LIRE 292355Z 01003KT CAVOK 21/20 Q1015 RMK SKC VIS MIN 9999 WIND THR13 01001KT WIND THR31 02001KT BLU

10-Day Weather Forecast

×

Almanac

Astronomy

Jul. 30, 2016 Rise Set
Actual Time
Civil Twilight
Nautical Twilight
Astronomical Twilight
Moon
Length of Visible Light
Length of Day
Tomorrow will be .
, % of the Moon is Illuminated

Today's Extremes

Country Highs Country Lows

Community

WunderPhotos

Upload Photos

1,928,449 photos uploaded!

WunderBlog® & News

Nearby

Air Quality

  Air Quality AQ Index Pollutant
Not available.

Snow Depth

Station Depth Elevation

Earthquake Activity

City Distance Mag. Time & Date
Minimum magnitude displayed is 2.5.

Coastal Water Temperatures

Place Temperature

Stations

Nearby Weather Stations

Station Location Temp. Windchill Dew Point Humidity Wind Precip. Elev Updated Type